Time;durP1;ratioP1;P1;durP2;ratioP2;P2;SDS_P1;SDS_P2;PMS_P1;PMS_P2;Temp;Humidity;BMP_temperature;BMP_pressure;BME280_temperature;BME280_humidity;BME280_pressure;Samples;Min_cycle;Max_cycle;Signal;HPM_P1;HPM_P2
2023/02/06 00:01:25;;;;;;;28.05;11.43;;;;;;;;;;5002660;28;20050;-86
2023/02/06 00:03:51;;;;;;;28.00;10.73;;;;;;;;;;5021444;28;20054;-85
2023/02/06 00:06:18;;;;;;;31.30;11.27;;;;;;;;;;5021296;28;20060;-87
2023/02/06 00:08:44;;;;;;;26.90;11.00;;;;;;;;;;5021567;28;20425;-86
2023/02/06 00:11:12;;;;;;;26.80;11.38;;;;;;;;;;5023060;28;20056;-85
2023/02/06 00:13:38;;;;;;;31.17;11.07;;;;;;;;;;5021491;28;20262;-86
2023/02/06 00:16:05;;;;;;;30.17;11.52;;;;;;;;;;5021730;28;20052;-86
2023/02/06 00:18:31;;;;;;;30.00;12.68;;;;;;;;;;5023482;28;20060;-85
2023/02/06 00:20:58;;;;;;;29.17;11.73;;;;;;;;;;5027206;28;20064;-86
2023/02/06 00:23:24;;;;;;;26.15;11.18;;;;;;;;;;5026423;28;20042;-85
2023/02/06 00:25:50;;;;;;;27.08;11.70;;;;;;;;;;5027168;28;20117;-86
2023/02/06 00:28:17;;;;;;;27.02;11.63;;;;;;;;;;5010268;28;20213;-86
2023/02/06 00:30:47;;;;;;;28.17;10.98;;;;;;;;;;5026459;28;20757;-83
2023/02/06 00:33:13;;;;;;;29.30;11.98;;;;;;;;;;5027792;28;20057;-84
2023/02/06 00:35:40;;;;;;;31.60;12.02;;;;;;;;;;5010213;28;20053;-84
2023/02/06 00:38:08;;;;;;;36.53;12.25;;;;;;;;;;5025589;28;20044;-85
2023/02/06 00:40:34;;;;;;;34.38;12.27;;;;;;;;;;5026180;28;20045;-85
2023/02/06 00:43:01;;;;;;;28.02;11.75;;;;;;;;;;5026164;28;20050;-85
2023/02/06 00:45:27;;;;;;;30.70;12.05;;;;;;;;;;5026169;28;20066;-83
2023/02/06 00:47:54;;;;;;;29.25;12.85;;;;;;;;;;5026916;28;20045;-84
2023/02/06 00:50:20;;;;;;;28.73;12.25;;;;;;;;;;5020873;28;20033;-83
2023/02/06 00:52:46;;;;;;;29.77;12.60;;;;;;;;;;5031210;28;20239;-82
2023/02/06 00:55:13;;;;;;;29.25;12.32;;;;;;;;;;5024425;28;20053;-83
2023/02/06 00:57:39;;;;;;;27.85;11.50;;;;;;;;;;5022559;28;20061;-84
2023/02/06 01:00:07;;;;;;;27.85;11.52;;;;;;;;;;5023341;28;20069;-85
2023/02/06 01:02:33;;;;;;;32.50;13.00;;;;;;;;;;5023365;28;20054;-82
2023/02/06 01:04:59;;;;;;;35.38;12.48;;;;;;;;;;5022938;28;20042;-88
2023/02/06 01:07:26;;;;;;;33.65;12.18;;;;;;;;;;5023045;28;20136;-87
2023/02/06 01:09:52;;;;;;;30.42;11.48;;;;;;;;;;5023563;28;20111;-81
2023/02/06 01:12:19;;;;;;;30.33;11.98;;;;;;;;;;5023705;28;20117;-83
2023/02/06 01:14:46;;;;;;;27.50;10.82;;;;;;;;;;4992540;28;20327;-86
2023/02/06 01:17:12;;;;;;;25.75;11.52;;;;;;;;;;5005084;28;20057;-84
2023/02/06 01:19:38;;;;;;;25.90;11.52;;;;;;;;;;5005255;28;20061;-86
2023/02/06 01:22:05;;;;;;;27.70;11.18;;;;;;;;;;4985313;28;20046;-83
2023/02/06 01:24:32;;;;;;;33.13;12.18;;;;;;;;;;4983516;28;20042;-83
2023/02/06 01:26:58;;;;;;;27.38;11.23;;;;;;;;;;4981958;28;20487;-81
2023/02/06 01:29:25;;;;;;;30.13;11.60;;;;;;;;;;4980742;28;20141;-82
2023/02/06 01:31:51;;;;;;;30.38;11.48;;;;;;;;;;4998585;28;20465;-82
2023/02/06 01:34:18;;;;;;;27.30;11.77;;;;;;;;;;4998818;28;20489;-83
2023/02/06 01:36:44;;;;;;;28.13;11.48;;;;;;;;;;4997487;28;20050;-86
2023/02/06 01:39:11;;;;;;;28.33;11.80;;;;;;;;;;4995627;28;20140;-82
2023/02/06 01:41:37;;;;;;;36.97;12.07;;;;;;;;;;4995835;28;20073;-82
2023/02/06 01:44:14;;;;;;;26.75;11.05;;;;;;;;;;4993447;28;20110;-82
2023/02/06 01:46:43;;;;;;;25.25;11.75;;;;;;;;;;5008023;28;20050;-90
2023/02/06 01:49:19;;;;;;;26.83;11.13;;;;;;;;;;5020098;28;20088;-87
2023/02/06 01:51:46;;;;;;;28.17;11.25;;;;;;;;;;5033935;28;20037;-84
2023/02/06 01:54:13;;;;;;;27.23;11.35;;;;;;;;;;5040334;28;20064;-81
2023/02/06 01:56:42;;;;;;;25.98;11.90;;;;;;;;;;5040349;28;20327;-85
2023/02/06 01:59:08;;;;;;;29.42;11.70;;;;;;;;;;5038874;28;20079;-82
2023/02/06 02:01:34;;;;;;;27.45;11.55;;;;;;;;;;5017962;28;20056;-83
2023/02/06 02:04:04;;;;;;;24.00;10.95;;;;;;;;;;5014516;28;20045;-81
2023/02/06 02:06:31;;;;;;;22.30;10.68;;;;;;;;;;5027164;28;20046;-84
2023/02/06 02:08:57;;;;;;;33.22;12.20;;;;;;;;;;5016604;28;20054;-85
2023/02/06 02:11:27;;;;;;;25.33;10.82;;;;;;;;;;5001298;28;20054;-83
2023/02/06 02:13:54;;;;;;;29.08;12.23;;;;;;;;;;5001778;28;20466;-85
2023/02/06 02:16:39;;;;;;;22.83;10.63;;;;;;;;;;5017552;28;20068;-85
2023/02/06 02:19:08;;;;;;;29.88;11.38;;;;;;;;;;4998091;28;20233;-82
2023/02/06 02:21:54;;;;;;;30.00;12.27;;;;;;;;;;5020707;28;20045;-84
2023/02/06 02:24:20;;;;;;;;;;;;;;;;;;5022909;28;20088;-84
2023/02/06 02:26:57;;;;;;;28.27;10.90;;;;;;;;;;5022487;28;19921;-86
2023/02/06 02:29:26;;;;;;;27.88;11.10;;;;;;;;;;5022715;28;20288;-84
2023/02/06 02:32:02;;;;;;;26.27;11.73;;;;;;;;;;5021453;28;20065;-87
2023/02/06 02:34:48;;;;;;;27.80;11.48;;;;;;;;;;5004512;28;20054;-88
2023/02/06 02:37:24;;;;;;;28.90;11.55;;;;;;;;;;5022308;28;20090;-87
2023/02/06 02:40:05;;;;;;;28.63;13.00;;;;;;;;;;5022601;28;20060;-84
2023/02/06 02:42:42;;;;;;;33.05;14.18;;;;;;;;;;5022640;28;20069;-85
2023/02/06 02:45:12;;;;;;;25.52;11.50;;;;;;;;;;5038667;28;20072;-85
2023/02/06 02:47:44;;;;;;;26.48;11.50;;;;;;;;;;5039295;28;20455;-86
2023/02/06 02:50:12;;;;;;;30.05;12.85;;;;;;;;;;5026280;28;20054;-85
2023/02/06 02:52:38;;;;;;;26.60;11.80;;;;;;;;;;5027468;28;20067;-86
2023/02/06 02:55:16;;;;;;;29.25;12.73;;;;;;;;;;5045880;28;20497;-86
2023/02/06 02:57:46;;;;;;;31.98;11.98;;;;;;;;;;5014342;28;20123;-84
2023/02/06 03:00:16;;;;;;;26.08;12.02;;;;;;;;;;5043859;28;20060;-84
2023/02/06 03:02:44;;;;;;;28.05;12.57;;;;;;;;;;5042536;28;20099;-85
2023/02/06 03:05:13;;;;;;;27.08;11.85;;;;;;;;;;5044187;28;20046;-85
2023/02/06 03:07:52;;;;;;;28.10;12.15;;;;;;;;;;5043437;28;20054;-83
2023/02/06 03:10:22;;;;;;;29.85;10.98;;;;;;;;;;5025680;28;20437;-83
2023/02/06 03:12:53;;;;;;;24.42;11.88;;;;;;;;;;5036318;28;20501;-84
2023/02/06 03:15:30;;;;;;;24.83;11.27;;;;;;;;;;5015760;28;20156;-86
2023/02/06 03:18:02;;;;;;;25.33;10.95;;;;;;;;;;5016188;28;20049;-82
2023/02/06 03:20:30;;;;;;;29.42;11.75;;;;;;;;;;5016594;28;20109;-83
2023/02/06 03:22:59;;;;;;;28.40;11.93;;;;;;;;;;5016934;28;20050;-82
2023/02/06 03:25:32;;;;;;;25.00;11.45;;;;;;;;;;5016968;28;20065;-82
2023/02/06 03:28:00;;;;;;;24.97;11.57;;;;;;;;;;5016186;28;20472;-83
2023/02/06 03:30:27;;;;;;;24.40;11.60;;;;;;;;;;5016425;28;20045;-82
2023/02/06 03:32:58;;;;;;;23.23;11.05;;;;;;;;;;4999856;28;20046;-82
2023/02/06 03:35:28;;;;;;;27.75;11.45;;;;;;;;;;5015589;28;20050;-81
2023/02/06 03:37:57;;;;;;;24.42;11.73;;;;;;;;;;5016123;28;20050;-81
2023/02/06 03:40:25;;;;;;;23.48;11.40;;;;;;;;;;4999593;28;20091;-82
2023/02/06 03:42:56;;;;;;;27.02;11.85;;;;;;;;;;4999720;28;20132;-82
2023/02/06 03:45:29;;;;;;;22.35;11.10;;;;;;;;;;5017473;28;20042;-82
2023/02/06 03:47:59;;;;;;;27.50;11.45;;;;;;;;;;4998468;28;20061;-81
2023/02/06 03:50:27;;;;;;;25.30;11.25;;;;;;;;;;5007414;28;20323;-85
2023/02/06 03:52:55;;;;;;;31.02;11.95;;;;;;;;;;5039026;28;20041;-81
2023/02/06 03:55:22;;;;;;;31.42;12.75;;;;;;;;;;5038525;28;20052;-86
2023/02/06 03:57:53;;;;;;;26.33;11.70;;;;;;;;;;5040642;28;20152;-81
2023/02/06 04:00:20;;;;;;;29.20;11.63;;;;;;;;;;5039301;28;20111;-82
2023/02/06 04:02:47;;;;;;;30.10;12.82;;;;;;;;;;5039574;28;20089;-83
2023/02/06 04:05:14;;;;;;;31.20;12.35;;;;;;;;;;5039786;28;20481;-81
2023/02/06 04:07:41;;;;;;;29.08;11.90;;;;;;;;;;5020121;28;20049;-84
2023/02/06 04:10:07;;;;;;;30.67;12.77;;;;;;;;;;5042161;28;20413;-86
2023/02/06 04:12:34;;;;;;;28.77;12.15;;;;;;;;;;5026696;28;20049;-85
2023/02/06 04:15:01;;;;;;;26.38;12.02;;;;;;;;;;5012147;28;20077;-84
2023/02/06 04:17:28;;;;;;;30.33;12.05;;;;;;;;;;5025678;28;20453;-85
2023/02/06 04:20:14;;;;;;;23.70;11.70;;;;;;;;;;5027107;28;20058;-85
2023/02/06 04:22:41;;;;;;;27.38;11.93;;;;;;;;;;5033843;28;20138;-88
2023/02/06 04:25:08;;;;;;;25.90;11.90;;;;;;;;;;5030080;28;20132;-84
2023/02/06 04:27:34;;;;;;;27.35;11.65;;;;;;;;;;5001245;28;20088;-83
2023/02/06 04:30:01;;;;;;;26.23;11.52;;;;;;;;;;5019076;28;20074;-84
2023/02/06 04:32:27;;;;;;;29.40;12.45;;;;;;;;;;5017686;28;20103;-83
2023/02/06 04:34:54;;;;;;;24.48;12.27;;;;;;;;;;5018151;28;20141;-85
2023/02/06 04:37:20;;;;;;;27.80;12.77;;;;;;;;;;5016588;28;20046;-84
2023/02/06 04:39:47;;;;;;;25.85;11.98;;;;;;;;;;5022665;28;20068;-83
2023/02/06 04:42:14;;;;;;;30.23;12.35;;;;;;;;;;5001383;28;20050;-86
2023/02/06 04:44:40;;;;;;;31.33;12.10;;;;;;;;;;5019076;28;20038;-85
2023/02/06 04:47:07;;;;;;;26.33;11.38;;;;;;;;;;5020822;28;20111;-86
2023/02/06 04:49:33;;;;;;;30.08;12.70;;;;;;;;;;5031375;28;20049;-82
2023/02/06 04:52:00;;;;;;;25.60;11.77;;;;;;;;;;5030664;28;20121;-84
2023/02/06 04:54:26;;;;;;;32.38;12.20;;;;;;;;;;5040868;28;20099;-86
2023/02/06 04:56:53;;;;;;;22.00;11.57;;;;;;;;;;5040116;28;20063;-84
2023/02/06 04:59:19;;;;;;;28.33;11.75;;;;;;;;;;5008659;28;20133;-80
2023/02/06 05:01:46;;;;;;;25.00;12.15;;;;;;;;;;5017856;28;20046;-81
2023/02/06 05:04:13;;;;;;;25.90;12.38;;;;;;;;;;5016764;28;20061;-85
2023/02/06 05:06:39;;;;;;;28.52;12.52;;;;;;;;;;5017266;28;20049;-81
2023/02/06 05:09:06;;;;;;;25.20;12.38;;;;;;;;;;5016272;28;20049;-81
2023/02/06 05:11:35;;;;;;;27.13;12.90;;;;;;;;;;5021993;28;20069;-83
2023/02/06 05:14:02;;;;;;;32.05;12.55;;;;;;;;;;5004210;28;20454;-82
2023/02/06 05:16:28;;;;;;;29.50;12.20;;;;;;;;;;5020978;28;20081;-83
2023/02/06 05:18:55;;;;;;;29.45;13.18;;;;;;;;;;5018730;28;20170;-76
2023/02/06 05:21:22;;;;;;;32.92;13.23;;;;;;;;;;5009034;28;20367;-76
2023/02/06 05:23:49;;;;;;;33.72;13.18;;;;;;;;;;5014017;28;20228;-82
2023/02/06 05:26:15;;;;;;;29.17;13.32;;;;;;;;;;5015707;28;20442;-85
2023/02/06 05:28:42;;;;;;;29.85;13.38;;;;;;;;;;5014055;28;20140;-82
2023/02/06 05:31:08;;;;;;;29.58;14.20;;;;;;;;;;5013019;28;20062;-82
2023/02/06 05:33:35;;;;;;;32.75;13.95;;;;;;;;;;5014177;28;20120;-81
2023/02/06 05:36:05;;;;;;;28.95;13.30;;;;;;;;;;5014186;28;20238;-82
2023/02/06 05:38:32;;;;;;;34.30;14.40;;;;;;;;;;5013018;28;20076;-83
2023/02/06 05:40:58;;;;;;;30.70;14.07;;;;;;;;;;4996349;28;20419;-83
2023/02/06 05:43:25;;;;;;;42.70;15.70;;;;;;;;;;5013113;28;20555;-83
2023/02/06 05:45:51;;;;;;;29.40;14.30;;;;;;;;;;5017772;28;20076;-84
2023/02/06 05:48:18;;;;;;;35.92;15.23;;;;;;;;;;5013886;28;20050;-84
2023/02/06 05:50:47;;;;;;;32.72;15.27;;;;;;;;;;5021228;28;20077;-82
2023/02/06 05:53:13;;;;;;;34.50;16.90;;;;;;;;;;5030374;28;20505;-82
2023/02/06 05:55:40;;;;;;;41.17;17.77;;;;;;;;;;5033627;28;20516;-82
2023/02/06 05:58:06;;;;;;;38.53;18.55;;;;;;;;;;5014776;28;20042;-83
2023/02/06 06:00:33;;;;;;;41.00;18.73;;;;;;;;;;5015727;28;20045;-83
2023/02/06 06:02:59;;;;;;;43.60;18.95;;;;;;;;;;5014976;28;20076;-84
2023/02/06 06:05:25;;;;;;;40.30;18.67;;;;;;;;;;5016888;28;20049;-83
2023/02/06 06:07:52;;;;;;;37.67;17.88;;;;;;;;;;5012399;28;20066;-83
2023/02/06 06:10:18;;;;;;;38.00;19.05;;;;;;;;;;5017041;28;20045;-84
2023/02/06 06:12:45;;;;;;;44.30;18.90;;;;;;;;;;5024481;28;20052;-86
2023/02/06 06:15:11;;;;;;;35.85;18.08;;;;;;;;;;5022238;28;20096;-83
2023/02/06 06:17:37;;;;;;;32.85;17.83;;;;;;;;;;5023472;28;20332;-85
2023/02/06 06:20:04;;;;;;;36.70;17.63;;;;;;;;;;5004370;28;20065;-83
2023/02/06 06:22:30;;;;;;;36.20;16.65;;;;;;;;;;5021966;28;20085;-84
2023/02/06 06:24:57;;;;;;;38.83;18.17;;;;;;;;;;5021283;28;20081;-84
2023/02/06 06:27:23;;;;;;;35.53;17.60;;;;;;;;;;5019159;28;20054;-83
2023/02/06 06:29:50;;;;;;;39.45;17.45;;;;;;;;;;5014956;28;20065;-84
2023/02/06 06:32:17;;;;;;;40.70;16.88;;;;;;;;;;5015637;28;20053;-83
2023/02/06 06:34:45;;;;;;;34.40;17.30;;;;;;;;;;5014303;28;20054;-83
2023/02/06 06:37:11;;;;;;;37.45;15.70;;;;;;;;;;5009034;28;20050;-83
2023/02/06 06:39:38;;;;;;;30.00;15.35;;;;;;;;;;5008351;28;20049;-83
2023/02/06 06:42:04;;;;;;;32.35;16.00;;;;;;;;;;5010675;28;20049;-84
2023/02/06 06:44:31;;;;;;;33.38;15.27;;;;;;;;;;5007788;28;20046;-83
2023/02/06 06:46:57;;;;;;;34.28;14.93;;;;;;;;;;5008643;28;20172;-83
2023/02/06 06:49:23;;;;;;;32.28;14.95;;;;;;;;;;5011108;28;20160;-84
2023/02/06 06:51:50;;;;;;;30.80;14.48;;;;;;;;;;5025177;28;20049;-83
2023/02/06 06:54:18;;;;;;;29.23;14.52;;;;;;;;;;5009906;28;20049;-83
2023/02/06 06:56:44;;;;;;;35.92;16.38;;;;;;;;;;5020194;28;20054;-84
2023/02/06 06:59:11;;;;;;;32.22;15.63;;;;;;;;;;5023894;28;20534;-83
2023/02/06 07:01:37;;;;;;;31.60;15.35;;;;;;;;;;5013800;28;20046;-83
2023/02/06 07:04:04;;;;;;;32.50;14.73;;;;;;;;;;5013013;28;20045;-83
2023/02/06 07:06:30;;;;;;;35.85;14.52;;;;;;;;;;5013572;28;20053;-83
2023/02/06 07:08:56;;;;;;;30.83;15.10;;;;;;;;;;5013076;28;20054;-84
2023/02/06 07:11:24;;;;;;;34.85;14.85;;;;;;;;;;5013594;28;20068;-83
2023/02/06 07:13:51;;;;;;;28.60;14.18;;;;;;;;;;5007542;28;20046;-82
2023/02/06 07:16:18;;;;;;;32.38;14.27;;;;;;;;;;4977278;28;20415;-82
2023/02/06 07:18:44;;;;;;;31.13;14.23;;;;;;;;;;4994217;28;20614;-81
2023/02/06 07:21:14;;;;;;;32.95;13.57;;;;;;;;;;4995015;28;20153;-83
2023/02/06 07:23:41;;;;;;;33.10;13.98;;;;;;;;;;4993385;28;20057;-83
2023/02/06 07:26:07;;;;;;;31.85;14.07;;;;;;;;;;4999061;28;20557;-83
2023/02/06 07:28:34;;;;;;;32.45;14.23;;;;;;;;;;5014822;28;20053;-82
2023/02/06 07:31:01;;;;;;;29.20;13.20;;;;;;;;;;5015024;28;20157;-83
2023/02/06 07:33:27;;;;;;;34.90;13.82;;;;;;;;;;5016141;28;20269;-83
2023/02/06 07:35:54;;;;;;;27.23;13.20;;;;;;;;;;5014716;28;20060;-83
2023/02/06 07:38:20;;;;;;;34.05;13.35;;;;;;;;;;5015208;28;20052;-83
2023/02/06 07:40:47;;;;;;;25.45;12.25;;;;;;;;;;5017325;28;20320;-85
2023/02/06 07:43:13;;;;;;;25.50;12.10;;;;;;;;;;5016400;28;20067;-83
2023/02/06 07:45:40;;;;;;;30.38;13.65;;;;;;;;;;5016357;28;20050;-83
2023/02/06 07:48:06;;;;;;;31.80;13.63;;;;;;;;;;5015711;28;20054;-81
2023/02/06 07:50:33;;;;;;;28.50;13.02;;;;;;;;;;5023697;28;20529;-83
2023/02/06 07:52:59;;;;;;;30.98;13.45;;;;;;;;;;5030456;28;20054;-83
2023/02/06 07:55:26;;;;;;;31.27;12.73;;;;;;;;;;5042161;28;20049;-82
2023/02/06 07:57:53;;;;;;;32.83;13.32;;;;;;;;;;5023170;28;20046;-81
2023/02/06 08:00:20;;;;;;;33.22;14.32;;;;;;;;;;5014823;28;20046;-82
2023/02/06 08:02:46;;;;;;;34.53;14.88;;;;;;;;;;5015947;28;20063;-82
2023/02/06 08:05:12;;;;;;;36.15;15.40;;;;;;;;;;5015299;28;20042;-82
2023/02/06 08:07:39;;;;;;;36.53;15.57;;;;;;;;;;5014663;28;20057;-82
2023/02/06 08:10:05;;;;;;;41.47;16.80;;;;;;;;;;5015856;28;20052;-82
2023/02/06 08:12:32;;;;;;;37.45;17.17;;;;;;;;;;5015860;28;20045;-81
2023/02/06 08:14:58;;;;;;;41.75;16.70;;;;;;;;;;5014311;28;20054;-82
2023/02/06 08:17:24;;;;;;;36.33;16.63;;;;;;;;;;5014538;28;20050;-81
2023/02/06 08:19:51;;;;;;;43.28;18.30;;;;;;;;;;5015810;28;20502;-81
2023/02/06 08:22:17;;;;;;;43.60;18.20;;;;;;;;;;5016702;28;20054;-80
2023/02/06 08:24:43;;;;;;;44.83;18.27;;;;;;;;;;5016530;28;20046;-83
2023/02/06 08:27:10;;;;;;;43.78;18.83;;;;;;;;;;5016930;28;20050;-81
2023/02/06 08:29:41;;;;;;;45.75;18.65;;;;;;;;;;5015355;28;20050;-82
2023/02/06 08:32:08;;;;;;;45.53;19.88;;;;;;;;;;5016405;28;20053;-82
2023/02/06 08:34:36;;;;;;;47.78;20.50;;;;;;;;;;5016206;28;20397;-81
2023/02/06 08:37:03;;;;;;;47.78;20.08;;;;;;;;;;5015630;28;20156;-82
2023/02/06 08:39:29;;;;;;;47.95;20.20;;;;;;;;;;5014292;28;20506;-82
2023/02/06 08:41:56;;;;;;;51.05;21.13;;;;;;;;;;5016635;28;20049;-81
2023/02/06 08:44:22;;;;;;;56.00;21.90;;;;;;;;;;5015959;28;20421;-81
2023/02/06 08:46:49;;;;;;;55.10;22.48;;;;;;;;;;5015284;28;20046;-82
2023/02/06 08:49:26;;;;;;;54.10;23.55;;;;;;;;;;5021525;28;20053;-82
2023/02/06 08:51:53;;;;;;;55.25;23.58;;;;;;;;;;5036425;28;20347;-81
2023/02/06 08:54:21;;;;;;;57.95;24.23;;;;;;;;;;5039519;28;20080;-82
2023/02/06 08:56:47;;;;;;;61.72;25.08;;;;;;;;;;5019426;28;20053;-83
2023/02/06 08:59:15;;;;;;;58.85;26.02;;;;;;;;;;5030663;28;20406;-82
2023/02/06 09:01:44;;;;;;;65.30;25.52;;;;;;;;;;5015019;28;20049;-82
2023/02/06 09:04:11;;;;;;;62.45;24.88;;;;;;;;;;5015598;28;20116;-81
2023/02/06 09:06:39;;;;;;;60.72;25.10;;;;;;;;;;5014278;28;20146;-81
2023/02/06 09:09:06;;;;;;;64.10;25.73;;;;;;;;;;5014346;28;20050;-81
2023/02/06 09:11:33;;;;;;;57.25;25.58;;;;;;;;;;5020612;28;20061;-82
2023/02/06 09:14:00;;;;;;;57.30;24.48;;;;;;;;;;5013969;28;20158;-81
2023/02/06 09:16:27;;;;;;;57.92;24.13;;;;;;;;;;4993732;28;20070;-81
2023/02/06 09:18:54;;;;;;;60.83;23.38;;;;;;;;;;4989967;28;20050;-81
2023/02/06 09:21:22;;;;;;;55.88;25.58;;;;;;;;;;4973711;28;20054;-81
2023/02/06 09:23:50;;;;;;;62.75;25.70;;;;;;;;;;4990410;28;20387;-81
2023/02/06 09:26:24;;;;;;;60.28;24.40;;;;;;;;;;4991078;28;20052;-81
2023/02/06 09:28:51;;;;;;;61.20;24.23;;;;;;;;;;4992134;28;20122;-81
2023/02/06 09:31:18;;;;;;;55.70;24.02;;;;;;;;;;5015683;28;20053;-82
2023/02/06 09:33:44;;;;;;;65.65;24.88;;;;;;;;;;5017104;28;20081;-81
2023/02/06 09:36:14;;;;;;;67.43;26.08;;;;;;;;;;5011874;28;20524;-82
2023/02/06 09:38:44;;;;;;;61.90;26.50;;;;;;;;;;5010683;28;20177;-80
2023/02/06 09:41:16;;;;;;;66.60;25.88;;;;;;;;;;5011738;28;20149;-80
2023/02/06 09:43:50;;;;;;;59.85;25.48;;;;;;;;;;5012181;28;20083;-82
2023/02/06 09:46:20;;;;;;;57.80;25.95;;;;;;;;;;5011362;28;20061;-82
2023/02/06 09:48:47;;;;;;;68.63;26.45;;;;;;;;;;5011556;28;20057;-82
2023/02/06 09:51:16;;;;;;;62.72;25.02;;;;;;;;;;5021494;28;20057;-82
2023/02/06 09:53:42;;;;;;;59.85;24.40;;;;;;;;;;5030414;28;20063;-81
2023/02/06 09:56:18;;;;;;;57.30;25.30;;;;;;;;;;5032428;28;20053;-80
2023/02/06 09:58:48;;;;;;;63.92;26.20;;;;;;;;;;5032483;28;20476;-81
2023/02/06 10:01:20;;;;;;;55.90;24.98;;;;;;;;;;5025513;28;20064;-82
2023/02/06 10:04:11;;;;;;;68.68;27.08;;;;;;;;;;4995471;28;20096;-82
2023/02/06 10:06:40;;;;;;;55.38;24.65;;;;;;;;;;5015463;28;20050;-81
2023/02/06 10:09:06;;;;;;;54.90;25.13;;;;;;;;;;5009970;28;20045;-80
2023/02/06 10:11:36;;;;;;;55.22;23.90;;;;;;;;;;5011194;28;20049;-80
2023/02/06 10:14:04;;;;;;;54.55;23.63;;;;;;;;;;5011398;28;20050;-80
2023/02/06 10:16:47;;;;;;;57.33;23.73;;;;;;;;;;5011437;28;20053;-79
2023/02/06 10:19:31;;;;;;;54.85;24.33;;;;;;;;;;5011809;28;20046;-80
2023/02/06 10:22:00;;;;;;;53.83;24.10;;;;;;;;;;5012033;28;20050;-82
2023/02/06 10:24:39;;;;;;;54.03;23.38;;;;;;;;;;5010939;28;20057;-79
2023/02/06 10:27:10;;;;;;;58.15;24.40;;;;;;;;;;5010677;28;20140;-81
2023/02/06 10:29:36;;;;;;;58.17;25.33;;;;;;;;;;4992735;28;20088;-80
2023/02/06 10:32:06;;;;;;;56.47;24.52;;;;;;;;;;5010201;28;20054;-80
2023/02/06 10:34:38;;;;;;;57.08;23.67;;;;;;;;;;5010123;28;20064;-81
2023/02/06 10:37:15;;;;;;;54.45;24.70;;;;;;;;;;5010564;28;20049;-81
2023/02/06 10:39:48;;;;;;;51.63;23.60;;;;;;;;;;5009805;28;20050;-79
2023/02/06 10:42:37;;;;;;;63.17;25.30;;;;;;;;;;5010824;28;20069;-80
2023/02/06 10:45:27;;;;;;;56.50;24.77;;;;;;;;;;5010313;28;20042;-80
2023/02/06 10:47:56;;;;;;;57.63;25.58;;;;;;;;;;4972737;28;20053;-79
2023/02/06 10:50:31;;;;;;;54.92;23.75;;;;;;;;;;5018972;28;20050;-81
2023/02/06 10:53:12;;;;;;;52.08;22.23;;;;;;;;;;5026562;28;20053;-80
2023/02/06 10:55:48;;;;;;;58.53;23.95;;;;;;;;;;5031054;28;20088;-81
2023/02/06 10:58:17;;;;;;;53.95;23.55;;;;;;;;;;5030024;28;20096;-80
2023/02/06 11:00:45;;;;;;;54.08;23.17;;;;;;;;;;5029554;28;20590;-80
2023/02/06 11:03:14;;;;;;;52.25;23.15;;;;;;;;;;5024733;28;20426;-80
2023/02/06 11:05:40;;;;;;;52.67;22.80;;;;;;;;;;5011383;28;20080;-82
2023/02/06 11:08:10;;;;;;;49.13;21.88;;;;;;;;;;5010037;28;20078;-81
2023/02/06 11:10:36;;;;;;;51.97;22.23;;;;;;;;;;5010321;28;20084;-82
2023/02/06 11:13:03;;;;;;;49.78;21.42;;;;;;;;;;5010103;28;20075;-82
2023/02/06 11:15:45;;;;;;;50.10;22.17;;;;;;;;;;4986711;28;20069;-81
2023/02/06 11:18:13;;;;;;;49.00;22.42;;;;;;;;;;4988149;28;20133;-81
2023/02/06 11:20:41;;;;;;;45.92;20.73;;;;;;;;;;4998357;28;20046;-82
2023/02/06 11:23:27;;;;;;;44.38;20.52;;;;;;;;;;5003186;28;20052;-81
2023/02/06 11:25:53;;;;;;;;;;;;;;;;;;4999205;28;20050;-82
2023/02/06 11:28:21;;;;;;;43.80;19.60;;;;;;;;;;5012360;28;20378;-81
2023/02/06 11:30:59;;;;;;;44.90;19.35;;;;;;;;;;4989540;28;20100;-81
2023/02/06 11:33:40;;;;;;;39.88;19.08;;;;;;;;;;5004570;28;20050;-82
2023/02/06 11:36:19;;;;;;;43.63;19.60;;;;;;;;;;4996577;28;20079;-83
2023/02/06 11:39:15;;;;;;;40.28;18.13;;;;;;;;;;5015680;28;20167;-83
2023/02/06 11:41:54;;;;;;;37.50;16.67;;;;;;;;;;4994595;28;20145;-84
2023/02/06 11:44:23;;;;;;;38.80;17.90;;;;;;;;;;5012741;28;20046;-83
2023/02/06 11:46:49;;;;;;;37.47;17.80;;;;;;;;;;5016529;28;20056;-83
2023/02/06 11:49:24;;;;;;;37.92;17.17;;;;;;;;;;5014228;28;20054;-82
2023/02/06 11:51:52;;;;;;;38.67;17.92;;;;;;;;;;5013202;28;20438;-84
2023/02/06 11:54:22;;;;;;;42.53;17.85;;;;;;;;;;5014554;28;20449;-84
2023/02/06 11:56:55;;;;;;;41.78;17.88;;;;;;;;;;4994719;28;20133;-85
2023/02/06 11:59:23;;;;;;;37.58;17.27;;;;;;;;;;4992282;28;20074;-82
2023/02/06 12:01:49;;;;;;;36.22;17.25;;;;;;;;;;4996264;28;20136;-83
2023/02/06 12:04:24;;;;;;;34.08;15.68;;;;;;;;;;5013442;28;20062;-83
2023/02/06 12:06:58;;;;;;;30.67;14.97;;;;;;;;;;5014616;28;20053;-82
2023/02/06 12:09:24;;;;;;;32.10;14.10;;;;;;;;;;5009537;28;20064;-83
2023/02/06 12:11:51;;;;;;;30.20;14.52;;;;;;;;;;5016646;28;20208;-83
2023/02/06 12:14:28;;;;;;;32.90;16.48;;;;;;;;;;5013827;28;20536;-82
2023/02/06 12:16:55;;;;;;;27.05;13.40;;;;;;;;;;5012703;28;20050;-80
2023/02/06 12:19:43;;;;;;;27.17;13.02;;;;;;;;;;5027183;28;20050;-84
2023/02/06 12:22:16;;;;;;;25.52;12.60;;;;;;;;;;5013459;28;20050;-84
2023/02/06 12:24:45;;;;;;;23.48;11.35;;;;;;;;;;5013537;28;20060;-82
2023/02/06 12:27:19;;;;;;;22.05;11.35;;;;;;;;;;5014403;28;20449;-81
2023/02/06 12:30:06;;;;;;;22.83;9.95;;;;;;;;;;5013124;28;20094;-83
2023/02/06 12:32:39;;;;;;;22.88;11.55;;;;;;;;;;4995587;28;20054;-82
2023/02/06 12:35:20;;;;;;;28.30;13.13;;;;;;;;;;5030087;28;20061;-82
2023/02/06 12:37:50;;;;;;;28.05;13.13;;;;;;;;;;5012305;28;20049;-81
2023/02/06 12:40:22;;;;;;;29.15;13.35;;;;;;;;;;5013775;28;20137;-82
2023/02/06 12:42:56;;;;;;;24.67;12.35;;;;;;;;;;5014547;28;20050;-81
2023/02/06 12:45:22;;;;;;;24.83;11.52;;;;;;;;;;5013826;28;20045;-81
2023/02/06 12:47:49;;;;;;;22.70;11.70;;;;;;;;;;5013011;28;20050;-80
2023/02/06 12:50:22;;;;;;;23.88;11.40;;;;;;;;;;5022480;28;20060;-80
2023/02/06 12:53:06;;;;;;;22.75;11.60;;;;;;;;;;5026929;28;20068;-81
2023/02/06 12:56:08;;;;;;;23.58;11.20;;;;;;;;;;5034293;28;20050;-81
2023/02/06 12:58:43;;;;;;;21.23;11.55;;;;;;;;;;4990049;28;20145;-81
2023/02/06 13:01:17;;;;;;;24.15;12.40;;;;;;;;;;5026178;28;20049;-80
2023/02/06 13:03:59;;;;;;;21.42;11.05;;;;;;;;;;5016654;28;20046;-81
2023/02/06 13:06:27;;;;;;;21.60;11.30;;;;;;;;;;5032205;28;20045;-81
2023/02/06 13:08:55;;;;;;;24.80;11.95;;;;;;;;;;5013040;28;20056;-81
2023/02/06 13:11:34;;;;;;;21.30;11.35;;;;;;;;;;5012203;28;20050;-81
2023/02/06 13:14:03;;;;;;;23.55;12.52;;;;;;;;;;5012031;28;20514;-82
2023/02/06 13:16:37;;;;;;;22.23;11.65;;;;;;;;;;5013015;28;20125;-80
2023/02/06 13:19:03;;;;;;;22.20;11.85;;;;;;;;;;5011471;28;20045;-81
2023/02/06 13:21:31;;;;;;;22.02;11.98;;;;;;;;;;5011451;28;20050;-81
2023/02/06 13:24:00;;;;;;;25.98;12.27;;;;;;;;;;5012265;28;20046;-80
2023/02/06 13:26:52;;;;;;;26.60;12.48;;;;;;;;;;5013228;28;20416;-81
2023/02/06 13:29:25;;;;;;;25.17;12.20;;;;;;;;;;5012066;28;20581;-82
2023/02/06 13:32:13;;;;;;;25.83;13.05;;;;;;;;;;5010651;28;20148;-82
2023/02/06 13:34:43;;;;;;;23.83;11.68;;;;;;;;;;5012631;28;20066;-82
2023/02/06 13:37:18;;;;;;;24.48;12.75;;;;;;;;;;5011979;28;20437;-82
2023/02/06 13:39:45;;;;;;;;;;;;;;;;;;5011763;28;20053;-81
2023/02/06 13:42:30;;;;;;;23.83;11.88;;;;;;;;;;5012110;28;19932;-81
2023/02/06 13:44:59;;;;;;;26.35;13.15;;;;;;;;;;5012887;28;20144;-81
2023/02/06 13:47:40;;;;;;;26.25;12.60;;;;;;;;;;5009374;28;20041;-82
2023/02/06 13:50:07;;;;;;;24.52;12.05;;;;;;;;;;5011136;28;20046;-81
2023/02/06 13:52:39;;;;;;;23.13;12.45;;;;;;;;;;5010184;28;20052;-82
2023/02/06 13:55:24;;;;;;;22.70;11.93;;;;;;;;;;5011845;28;20057;-81
2023/02/06 13:57:50;;;;;;;19.63;9.67;;;;;;;;;;5011216;28;20244;-82
2023/02/06 14:00:24;;;;;;;24.88;11.80;;;;;;;;;;5018335;28;20048;-82
2023/02/06 14:03:05;;;;;;;22.08;11.82;;;;;;;;;;5010963;28;20062;-82
2023/02/06 14:05:47;;;;;;;23.48;11.57;;;;;;;;;;5009724;28;20086;-83
2023/02/06 14:08:28;;;;;;;26.70;12.63;;;;;;;;;;5009977;28;20145;-83
2023/02/06 14:11:10;;;;;;;24.08;12.48;;;;;;;;;;5010387;28;20053;-82
2023/02/06 14:13:37;;;;;;;28.98;12.95;;;;;;;;;;5009540;28;20072;-80
2023/02/06 14:16:12;;;;;;;26.27;13.48;;;;;;;;;;5011183;28;20069;-82
2023/02/06 14:18:39;;;;;;;27.48;13.40;;;;;;;;;;5012552;28;20104;-82
2023/02/06 14:21:08;;;;;;;29.52;14.07;;;;;;;;;;5013941;28;20077;-80
2023/02/06 14:23:46;;;;;;;26.40;13.60;;;;;;;;;;5013292;28;20180;-80
2023/02/06 14:26:28;;;;;;;27.58;14.00;;;;;;;;;;5014720;28;20089;-83
2023/02/06 14:29:13;;;;;;;26.70;13.35;;;;;;;;;;5013991;28;20118;-82
2023/02/06 14:31:52;;;;;;;29.48;14.48;;;;;;;;;;5012548;28;20047;-82
2023/02/06 14:34:24;;;;;;;29.88;14.88;;;;;;;;;;4994328;28;20049;-81